sensor_id;sensor_type;location;lat;lon;timestamp;temperature;humidity
11387;DHT22;5748;53.102;8.456;2023-03-23T00:02:24;14.80;69.30
11387;DHT22;5748;53.102;8.456;2023-03-23T00:04:51;14.80;69.00
11387;DHT22;5748;53.102;8.456;2023-03-23T00:07:20;14.90;68.70
11387;DHT22;5748;53.102;8.456;2023-03-23T00:09:48;14.90;69.50
11387;DHT22;5748;53.102;8.456;2023-03-23T00:12:20;14.90;69.30
11387;DHT22;5748;53.102;8.456;2023-03-23T00:14:58;14.90;70.30
11387;DHT22;5748;53.102;8.456;2023-03-23T00:17:27;14.90;69.40
11387;DHT22;5748;53.102;8.456;2023-03-23T00:19:55;14.90;69.90
11387;DHT22;5748;53.102;8.456;2023-03-23T00:22:22;14.90;69.30
11387;DHT22;5748;53.102;8.456;2023-03-23T00:24:51;14.90;69.80
11387;DHT22;5748;53.102;8.456;2023-03-23T00:27:18;14.90;69.40
11387;DHT22;5748;53.102;8.456;2023-03-23T00:29:47;14.90;69.40
11387;DHT22;5748;53.102;8.456;2023-03-23T00:32:18;15.00;69.50
11387;DHT22;5748;53.102;8.456;2023-03-23T00:34:47;14.90;69.80
11387;DHT22;5748;53.102;8.456;2023-03-23T00:37:15;16.60;71.00
11387;DHT22;5748;53.102;8.456;2023-03-23T00:39:43;15.00;69.90
11387;DHT22;5748;53.102;8.456;2023-03-23T00:42:15;15.00;69.60
11387;DHT22;5748;53.102;8.456;2023-03-23T00:44:42;15.00;70.20
11387;DHT22;5748;53.102;8.456;2023-03-23T00:47:10;15.00;69.90
11387;DHT22;5748;53.102;8.456;2023-03-23T00:49:38;15.00;69.70
11387;DHT22;5748;53.102;8.456;2023-03-23T00:52:07;15.00;70.10
11387;DHT22;5748;53.102;8.456;2023-03-23T00:54:36;14.90;69.60
11387;DHT22;5748;53.102;8.456;2023-03-23T00:57:04;15.00;70.50
11387;DHT22;5748;53.102;8.456;2023-03-23T00:59:31;15.00;70.10
11387;DHT22;5748;53.102;8.456;2023-03-23T01:01:58;15.00;70.20
11387;DHT22;5748;53.102;8.456;2023-03-23T01:04:26;15.00;69.80
11387;DHT22;5748;53.102;8.456;2023-03-23T01:06:54;15.00;69.70
11387;DHT22;5748;53.102;8.456;2023-03-23T01:09:27;15.10;69.50
11387;DHT22;5748;53.102;8.456;2023-03-23T01:11:54;15.10;69.90
11387;DHT22;5748;53.102;8.456;2023-03-23T01:14:22;15.10;69.70
11387;DHT22;5748;53.102;8.456;2023-03-23T01:16:50;15.10;69.60
11387;DHT22;5748;53.102;8.456;2023-03-23T01:19:17;15.10;69.70
11387;DHT22;5748;53.102;8.456;2023-03-23T01:21:44;15.10;69.50
11387;DHT22;5748;53.102;8.456;2023-03-23T01:24:11;15.10;69.40
11387;DHT22;5748;53.102;8.456;2023-03-23T01:26:40;15.10;69.80
11387;DHT22;5748;53.102;8.456;2023-03-23T01:29:07;15.10;70.20
11387;DHT22;5748;53.102;8.456;2023-03-23T01:31:34;15.10;69.90
11387;DHT22;5748;53.102;8.456;2023-03-23T01:34:02;15.10;69.90
11387;DHT22;5748;53.102;8.456;2023-03-23T01:36:30;15.10;70.30
11387;DHT22;5748;53.102;8.456;2023-03-23T01:38:58;15.10;70.20
11387;DHT22;5748;53.102;8.456;2023-03-23T01:41:28;15.10;70.20
11387;DHT22;5748;53.102;8.456;2023-03-23T01:44:00;15.10;70.40
11387;DHT22;5748;53.102;8.456;2023-03-23T01:46:30;15.00;70.20
11387;DHT22;5748;53.102;8.456;2023-03-23T01:49:01;15.00;70.30
11387;DHT22;5748;53.102;8.456;2023-03-23T01:51:35;15.10;70.60
11387;DHT22;5748;53.102;8.456;2023-03-23T01:54:05;15.10;70.60
11387;DHT22;5748;53.102;8.456;2023-03-23T01:56:38;15.10;70.20
11387;DHT22;5748;53.102;8.456;2023-03-23T01:59:08;15.10;70.30
11387;DHT22;5748;53.102;8.456;2023-03-23T02:01:36;15.10;70.30
11387;DHT22;5748;53.102;8.456;2023-03-23T02:04:08;15.00;70.30
11387;DHT22;5748;53.102;8.456;2023-03-23T02:06:35;15.10;70.20
11387;DHT22;5748;53.102;8.456;2023-03-23T02:09:03;15.10;70.30
11387;DHT22;5748;53.102;8.456;2023-03-23T02:11:32;15.10;70.10
11387;DHT22;5748;53.102;8.456;2023-03-23T02:13:59;15.10;70.50
11387;DHT22;5748;53.102;8.456;2023-03-23T02:16:33;15.10;70.60
11387;DHT22;5748;53.102;8.456;2023-03-23T02:19:16;15.10;70.50
11387;DHT22;5748;53.102;8.456;2023-03-23T02:22:18;15.10;70.60
11387;DHT22;5748;53.102;8.456;2023-03-23T02:24:57;15.10;71.00
11387;DHT22;5748;53.102;8.456;2023-03-23T02:28:05;15.10;70.30
11387;DHT22;5748;53.102;8.456;2023-03-23T02:33:48;15.10;70.40
11387;DHT22;5748;53.102;8.456;2023-03-23T02:36:21;15.10;70.60
11387;DHT22;5748;53.102;8.456;2023-03-23T02:38:57;15.10;70.20
11387;DHT22;5748;53.102;8.456;2023-03-23T02:41:31;15.10;70.10
11387;DHT22;5748;53.102;8.456;2023-03-23T02:44:02;15.10;70.10
11387;DHT22;5748;53.102;8.456;2023-03-23T02:46:30;15.10;70.00
11387;DHT22;5748;53.102;8.456;2023-03-23T02:49:00;15.10;70.30
11387;DHT22;5748;53.102;8.456;2023-03-23T02:51:29;15.10;70.30
11387;DHT22;5748;53.102;8.456;2023-03-23T02:53:58;15.10;69.90
11387;DHT22;5748;53.102;8.456;2023-03-23T02:56:26;15.00;69.80
11387;DHT22;5748;53.102;8.456;2023-03-23T02:58:54;15.00;70.20
11387;DHT22;5748;53.102;8.456;2023-03-23T03:01:55;15.00;70.20
11387;DHT22;5748;53.102;8.456;2023-03-23T03:04:27;15.00;70.50
11387;DHT22;5748;53.102;8.456;2023-03-23T03:10:08;15.00;70.10
11387;DHT22;5748;53.102;8.456;2023-03-23T03:12:44;15.00;69.80
11387;DHT22;5748;53.102;8.456;2023-03-23T03:15:23;15.00;70.20
11387;DHT22;5748;53.102;8.456;2023-03-23T03:18:00;14.10;69.10
11387;DHT22;5748;53.102;8.456;2023-03-23T03:20:38;15.20;69.90
11387;DHT22;5748;53.102;8.456;2023-03-23T03:23:08;15.00;69.90
11387;DHT22;5748;53.102;8.456;2023-03-23T03:25:38;15.00;69.90
11387;DHT22;5748;53.102;8.456;2023-03-23T03:28:08;15.00;70.00
11387;DHT22;5748;53.102;8.456;2023-03-23T03:30:37;15.00;69.80
11387;DHT22;5748;53.102;8.456;2023-03-23T03:33:05;15.00;69.80
11387;DHT22;5748;53.102;8.456;2023-03-23T03:35:37;14.90;69.70
11387;DHT22;5748;53.102;8.456;2023-03-23T03:38:08;15.00;70.10
11387;DHT22;5748;53.102;8.456;2023-03-23T03:40:36;15.00;69.70
11387;DHT22;5748;53.102;8.456;2023-03-23T03:43:04;15.00;70.10
11387;DHT22;5748;53.102;8.456;2023-03-23T03:45:32;15.00;69.80
11387;DHT22;5748;53.102;8.456;2023-03-23T03:48:00;15.00;69.70
11387;DHT22;5748;53.102;8.456;2023-03-23T03:50:27;15.00;70.00
11387;DHT22;5748;53.102;8.456;2023-03-23T03:52:55;15.00;70.00
11387;DHT22;5748;53.102;8.456;2023-03-23T03:55:23;15.10;69.80
11387;DHT22;5748;53.102;8.456;2023-03-23T03:57:50;15.10;70.20
11387;DHT22;5748;53.102;8.456;2023-03-23T04:00:18;15.00;69.80
11387;DHT22;5748;53.102;8.456;2023-03-23T04:02:47;15.00;70.00
11387;DHT22;5748;53.102;8.456;2023-03-23T04:05:16;15.00;69.70
11387;DHT22;5748;53.102;8.456;2023-03-23T04:07:44;15.00;69.60
11387;DHT22;5748;53.102;8.456;2023-03-23T04:10:16;15.10;69.70
11387;DHT22;5748;53.102;8.456;2023-03-23T04:12:45;15.10;70.30
11387;DHT22;5748;53.102;8.456;2023-03-23T04:15:12;15.00;69.80
11387;DHT22;5748;53.102;8.456;2023-03-23T04:17:39;15.60;71.00
11387;DHT22;5748;53.102;8.456;2023-03-23T04:20:09;15.10;70.20
11387;DHT22;5748;53.102;8.456;2023-03-23T04:22:42;15.00;70.20
11387;DHT22;5748;53.102;8.456;2023-03-23T04:25:12;15.10;70.10
11387;DHT22;5748;53.102;8.456;2023-03-23T04:27:41;15.00;69.80
11387;DHT22;5748;53.102;8.456;2023-03-23T04:30:12;15.10;69.90
11387;DHT22;5748;53.102;8.456;2023-03-23T04:32:40;15.00;69.80
11387;DHT22;5748;53.102;8.456;2023-03-23T04:35:09;15.20;69.80
11387;DHT22;5748;53.102;8.456;2023-03-23T04:37:38;15.10;69.60
11387;DHT22;5748;53.102;8.456;2023-03-23T04:40:08;15.10;69.30
11387;DHT22;5748;53.102;8.456;2023-03-23T04:42:38;15.10;69.30
11387;DHT22;5748;53.102;8.456;2023-03-23T04:45:08;15.10;69.40
11387;DHT22;5748;53.102;8.456;2023-03-23T04:47:47;15.10;69.10
11387;DHT22;5748;53.102;8.456;2023-03-23T04:50:19;15.10;69.30
11387;DHT22;5748;53.102;8.456;2023-03-23T04:52:49;15.20;69.20
11387;DHT22;5748;53.102;8.456;2023-03-23T04:55:18;15.10;68.90
11387;DHT22;5748;53.102;8.456;2023-03-23T04:57:46;15.20;69.30
11387;DHT22;5748;53.102;8.456;2023-03-23T05:00:15;15.10;69.20
11387;DHT22;5748;53.102;8.456;2023-03-23T05:02:44;15.10;69.20
11387;DHT22;5748;53.102;8.456;2023-03-23T05:05:13;15.10;69.20
11387;DHT22;5748;53.102;8.456;2023-03-23T05:07:41;15.10;69.50
11387;DHT22;5748;53.102;8.456;2023-03-23T05:10:10;15.10;69.20
11387;DHT22;5748;53.102;8.456;2023-03-23T05:12:38;15.10;69.20
11387;DHT22;5748;53.102;8.456;2023-03-23T05:15:07;15.20;69.30
11387;DHT22;5748;53.102;8.456;2023-03-23T05:17:39;15.10;69.10
11387;DHT22;5748;53.102;8.456;2023-03-23T05:20:11;15.10;69.00
11387;DHT22;5748;53.102;8.456;2023-03-23T05:22:40;15.10;69.10
11387;DHT22;5748;53.102;8.456;2023-03-23T05:25:08;15.20;68.90
11387;DHT22;5748;53.102;8.456;2023-03-23T05:27:36;15.10;68.90
11387;DHT22;5748;53.102;8.456;2023-03-23T05:30:04;15.20;68.80
11387;DHT22;5748;53.102;8.456;2023-03-23T05:32:32;15.20;68.70
11387;DHT22;5748;53.102;8.456;2023-03-23T05:35:01;15.50;68.90
11387;DHT22;5748;53.102;8.456;2023-03-23T05:37:29;15.10;68.50
11387;DHT22;5748;53.102;8.456;2023-03-23T05:39:57;15.10;68.50
11387;DHT22;5748;53.102;8.456;2023-03-23T05:42:31;15.10;68.80
11387;DHT22;5748;53.102;8.456;2023-03-23T05:44:58;15.10;69.00
11387;DHT22;5748;53.102;8.456;2023-03-23T05:47:26;15.10;68.70
11387;DHT22;5748;53.102;8.456;2023-03-23T05:49:53;15.10;69.60
11387;DHT22;5748;53.102;8.456;2023-03-23T05:52:21;15.10;68.80
11387;DHT22;5748;53.102;8.456;2023-03-23T05:54:50;15.30;69.10
11387;DHT22;5748;53.102;8.456;2023-03-23T05:57:17;15.10;68.80
11387;DHT22;5748;53.102;8.456;2023-03-23T05:59:47;15.10;68.90
11387;DHT22;5748;53.102;8.456;2023-03-23T06:02:14;15.10;68.60
11387;DHT22;5748;53.102;8.456;2023-03-23T06:04:41;15.10;68.70
11387;DHT22;5748;53.102;8.456;2023-03-23T06:07:08;15.10;68.70
11387;DHT22;5748;53.102;8.456;2023-03-23T06:09:40;15.10;68.50
11387;DHT22;5748;53.102;8.456;2023-03-23T06:12:08;15.10;68.90
11387;DHT22;5748;53.102;8.456;2023-03-23T06:14:36;15.10;68.90
11387;DHT22;5748;53.102;8.456;2023-03-23T06:17:03;15.10;69.00
11387;DHT22;5748;53.102;8.456;2023-03-23T06:19:31;15.10;69.00
11387;DHT22;5748;53.102;8.456;2023-03-23T06:21:59;15.20;69.20
11387;DHT22;5748;53.102;8.456;2023-03-23T06:24:27;15.50;69.40
11387;DHT22;5748;53.102;8.456;2023-03-23T06:26:55;15.20;69.10
11387;DHT22;5748;53.102;8.456;2023-03-23T06:29:22;15.30;69.30
11387;DHT22;5748;53.102;8.456;2023-03-23T06:31:53;15.30;69.30
11387;DHT22;5748;53.102;8.456;2023-03-23T06:34:22;15.30;69.40
11387;DHT22;5748;53.102;8.456;2023-03-23T06:36:50;15.30;69.30
11387;DHT22;5748;53.102;8.456;2023-03-23T06:39:17;15.40;69.40
11387;DHT22;5748;53.102;8.456;2023-03-23T06:41:44;15.50;69.30
11387;DHT22;5748;53.102;8.456;2023-03-23T06:44:12;15.50;69.30
11387;DHT22;5748;53.102;8.456;2023-03-23T06:46:40;16.20;69.80
11387;DHT22;5748;53.102;8.456;2023-03-23T06:49:07;15.60;69.10
11387;DHT22;5748;53.102;8.456;2023-03-23T06:51:35;15.70;69.20
11387;DHT22;5748;53.102;8.456;2023-03-23T06:54:03;15.70;69.30
11387;DHT22;5748;53.102;8.456;2023-03-23T06:56:30;15.70;69.30
11387;DHT22;5748;53.102;8.456;2023-03-23T06:58:58;15.70;69.30
11387;DHT22;5748;53.102;8.456;2023-03-23T07:01:26;15.70;69.30
11387;DHT22;5748;53.102;8.456;2023-03-23T07:04:03;15.70;69.30
11387;DHT22;5748;53.102;8.456;2023-03-23T07:06:30;15.70;69.40
11387;DHT22;5748;53.102;8.456;2023-03-23T07:08:57;15.70;69.30
11387;DHT22;5748;53.102;8.456;2023-03-23T07:11:25;15.70;69.30
11387;DHT22;5748;53.102;8.456;2023-03-23T07:13:52;15.60;69.40
11387;DHT22;5748;53.102;8.456;2023-03-23T07:16:19;15.50;69.20
11387;DHT22;5748;53.102;8.456;2023-03-23T07:18:48;15.50;69.10
11387;DHT22;5748;53.102;8.456;2023-03-23T07:21:16;15.50;69.00
11387;DHT22;5748;53.102;8.456;2023-03-23T07:23:43;15.40;68.90
11387;DHT22;5748;53.102;8.456;2023-03-23T07:26:14;15.40;68.70
11387;DHT22;5748;53.102;8.456;2023-03-23T07:28:41;15.30;68.40
11387;DHT22;5748;53.102;8.456;2023-03-23T07:31:08;15.30;68.40
11387;DHT22;5748;53.102;8.456;2023-03-23T07:33:35;15.20;68.30
11387;DHT22;5748;53.102;8.456;2023-03-23T07:36:26;15.20;68.20
11387;DHT22;5748;53.102;8.456;2023-03-23T07:38:53;15.10;68.20
11387;DHT22;5748;53.102;8.456;2023-03-23T07:41:22;15.10;68.20
11387;DHT22;5748;53.102;8.456;2023-03-23T07:43:49;15.10;68.30
11387;DHT22;5748;53.102;8.456;2023-03-23T07:46:16;15.10;68.50
11387;DHT22;5748;53.102;8.456;2023-03-23T07:48:43;15.10;68.70
11387;DHT22;5748;53.102;8.456;2023-03-23T07:51:10;15.10;68.70
11387;DHT22;5748;53.102;8.456;2023-03-23T07:53:38;15.10;68.90
11387;DHT22;5748;53.102;8.456;2023-03-23T07:56:06;15.10;68.90
11387;DHT22;5748;53.102;8.456;2023-03-23T07:58:34;15.10;69.00
11387;DHT22;5748;53.102;8.456;2023-03-23T08:01:01;15.10;69.00
11387;DHT22;5748;53.102;8.456;2023-03-23T08:03:29;15.10;69.30
11387;DHT22;5748;53.102;8.456;2023-03-23T08:05:57;15.20;69.30
11387;DHT22;5748;53.102;8.456;2023-03-23T08:08:25;15.20;69.30
11387;DHT22;5748;53.102;8.456;2023-03-23T08:10:53;15.10;69.30
11387;DHT22;5748;53.102;8.456;2023-03-23T08:13:20;15.20;69.40
11387;DHT22;5748;53.102;8.456;2023-03-23T08:15:47;15.20;69.30
11387;DHT22;5748;53.102;8.456;2023-03-23T08:18:15;15.20;69.50
11387;DHT22;5748;53.102;8.456;2023-03-23T08:20:56;15.10;69.60
11387;DHT22;5748;53.102;8.456;2023-03-23T08:23:23;15.20;69.90
11387;DHT22;5748;53.102;8.456;2023-03-23T08:25:50;15.30;70.00
11387;DHT22;5748;53.102;8.456;2023-03-23T08:28:18;15.20;69.80
11387;DHT22;5748;53.102;8.456;2023-03-23T08:30:45;15.30;70.00
11387;DHT22;5748;53.102;8.456;2023-03-23T08:33:14;15.30;69.80
11387;DHT22;5748;53.102;8.456;2023-03-23T08:35:41;15.30;69.70
11387;DHT22;5748;53.102;8.456;2023-03-23T08:38:09;15.40;69.70
11387;DHT22;5748;53.102;8.456;2023-03-23T08:40:37;15.50;69.60
11387;DHT22;5748;53.102;8.456;2023-03-23T08:43:05;15.40;69.40
11387;DHT22;5748;53.102;8.456;2023-03-23T08:45:33;15.40;70.00
11387;DHT22;5748;53.102;8.456;2023-03-23T08:48:00;15.50;69.10
11387;DHT22;5748;53.102;8.456;2023-03-23T08:50:28;15.50;69.10
11387;DHT22;5748;53.102;8.456;2023-03-23T08:52:56;15.50;69.30
11387;DHT22;5748;53.102;8.456;2023-03-23T08:55:23;15.50;69.30
11387;DHT22;5748;53.102;8.456;2023-03-23T08:57:52;15.60;69.60
11387;DHT22;5748;53.102;8.456;2023-03-23T09:00:21;15.60;69.80
11387;DHT22;5748;53.102;8.456;2023-03-23T09:02:53;15.70;70.00
11387;DHT22;5748;53.102;8.456;2023-03-23T09:05:23;15.70;69.80
11387;DHT22;5748;53.102;8.456;2023-03-23T09:07:54;15.80;69.60
11387;DHT22;5748;53.102;8.456;2023-03-23T09:10:24;15.80;69.50
11387;DHT22;5748;53.102;8.456;2023-03-23T09:12:52;15.90;69.50
11387;DHT22;5748;53.102;8.456;2023-03-23T09:15:20;15.90;69.50
11387;DHT22;5748;53.102;8.456;2023-03-23T09:17:50;15.90;69.60
11387;DHT22;5748;53.102;8.456;2023-03-23T09:20:24;16.00;69.70
11387;DHT22;5748;53.102;8.456;2023-03-23T09:22:53;16.00;69.70
11387;DHT22;5748;53.102;8.456;2023-03-23T09:25:24;16.10;69.60
11387;DHT22;5748;53.102;8.456;2023-03-23T09:27:54;16.10;70.40
11387;DHT22;5748;53.102;8.456;2023-03-23T09:30:23;16.20;70.00
11387;DHT22;5748;53.102;8.456;2023-03-23T09:32:54;16.70;70.90
11387;DHT22;5748;53.102;8.456;2023-03-23T09:35:21;16.40;70.50
11387;DHT22;5748;53.102;8.456;2023-03-23T09:37:50;16.50;70.60
11387;DHT22;5748;53.102;8.456;2023-03-23T09:40:21;16.60;71.00
11387;DHT22;5748;53.102;8.456;2023-03-23T09:43:03;16.80;71.30
11387;DHT22;5748;53.102;8.456;2023-03-23T09:45:49;17.00;71.00
11387;DHT22;5748;53.102;8.456;2023-03-23T09:48:36;17.20;70.00
11387;DHT22;5748;53.102;8.456;2023-03-23T09:51:14;17.30;68.20
11387;DHT22;5748;53.102;8.456;2023-03-23T09:53:48;17.50;68.70
11387;DHT22;5748;53.102;8.456;2023-03-23T09:56:17;17.40;67.60
11387;DHT22;5748;53.102;8.456;2023-03-23T09:58:58;17.40;67.50
11387;DHT22;5748;53.102;8.456;2023-03-23T10:01:32;17.50;68.20
11387;DHT22;5748;53.102;8.456;2023-03-23T10:04:12;17.60;69.60
11387;DHT22;5748;53.102;8.456;2023-03-23T10:06:43;17.80;68.10
11387;DHT22;5748;53.102;8.456;2023-03-23T10:09:15;17.80;68.20
11387;DHT22;5748;53.102;8.456;2023-03-23T10:11:50;18.10;68.70
11387;DHT22;5748;53.102;8.456;2023-03-23T10:14:43;18.20;68.80
11387;DHT22;5748;53.102;8.456;2023-03-23T10:17:19;18.10;66.20
11387;DHT22;5748;53.102;8.456;2023-03-23T10:19:54;18.20;66.80
11387;DHT22;5748;53.102;8.456;2023-03-23T10:22:29;18.20;66.50
11387;DHT22;5748;53.102;8.456;2023-03-23T10:25:05;18.20;65.70
11387;DHT22;5748;53.102;8.456;2023-03-23T10:27:44;18.10;65.40
11387;DHT22;5748;53.102;8.456;2023-03-23T10:30:19;18.10;64.80
11387;DHT22;5748;53.102;8.456;2023-03-23T10:32:54;17.90;64.50
11387;DHT22;5748;53.102;8.456;2023-03-23T10:35:29;18.20;65.20
11387;DHT22;5748;53.102;8.456;2023-03-23T10:38:22;17.80;65.20
11387;DHT22;5748;53.102;8.456;2023-03-23T10:40:54;17.80;65.50
11387;DHT22;5748;53.102;8.456;2023-03-23T10:43:24;17.70;65.30
11387;DHT22;5748;53.102;8.456;2023-03-23T10:45:56;17.70;64.80
11387;DHT22;5748;53.102;8.456;2023-03-23T10:48:30;17.60;65.40
11387;DHT22;5748;53.102;8.456;2023-03-23T10:51:02;17.60;66.10
11387;DHT22;5748;53.102;8.456;2023-03-23T10:53:33;17.50;65.00
11387;DHT22;5748;53.102;8.456;2023-03-23T10:56:04;17.60;65.80
11387;DHT22;5748;53.102;8.456;2023-03-23T10:58:34;17.60;65.80
11387;DHT22;5748;53.102;8.456;2023-03-23T11:01:04;17.60;65.90
11387;DHT22;5748;53.102;8.456;2023-03-23T11:03:40;17.60;65.60
11387;DHT22;5748;53.102;8.456;2023-03-23T11:06:11;17.50;64.40
11387;DHT22;5748;53.102;8.456;2023-03-23T11:08:48;17.60;65.10
11387;DHT22;5748;53.102;8.456;2023-03-23T11:11:17;17.50;64.50
11387;DHT22;5748;53.102;8.456;2023-03-23T11:13:48;17.50;64.90
11387;DHT22;5748;53.102;8.456;2023-03-23T11:16:24;17.60;65.50
11387;DHT22;5748;53.102;8.456;2023-03-23T11:18:53;17.60;64.90
11387;DHT22;5748;53.102;8.456;2023-03-23T11:21:23;17.50;64.70
11387;DHT22;5748;53.102;8.456;2023-03-23T11:23:53;17.40;64.70
11387;DHT22;5748;53.102;8.456;2023-03-23T11:26:26;17.50;64.40
11387;DHT22;5748;53.102;8.456;2023-03-23T11:28:57;17.40;64.80
11387;DHT22;5748;53.102;8.456;2023-03-23T11:31:32;17.60;66.30
11387;DHT22;5748;53.102;8.456;2023-03-23T11:34:03;17.70;65.70
11387;DHT22;5748;53.102;8.456;2023-03-23T11:36:35;18.10;67.80
11387;DHT22;5748;53.102;8.456;2023-03-23T11:39:17;18.50;67.10
11387;DHT22;5748;53.102;8.456;2023-03-23T11:41:46;19.00;68.20
11387;DHT22;5748;53.102;8.456;2023-03-23T11:44:13;19.50;68.90
11387;DHT22;5748;53.102;8.456;2023-03-23T11:46:49;20.20;66.80
11387;DHT22;5748;53.102;8.456;2023-03-23T11:49:30;20.80;65.60
11387;DHT22;5748;53.102;8.456;2023-03-23T11:52:12;21.40;65.70
11387;DHT22;5748;53.102;8.456;2023-03-23T11:54:46;21.50;64.20
11387;DHT22;5748;53.102;8.456;2023-03-23T11:57:15;22.50;65.10
11387;DHT22;5748;53.102;8.456;2023-03-23T11:59:43;23.00;62.90
11387;DHT22;5748;53.102;8.456;2023-03-23T12:05:37;24.10;57.70
11387;DHT22;5748;53.102;8.456;2023-03-23T12:08:22;24.50;58.30
11387;DHT22;5748;53.102;8.456;2023-03-23T12:10:59;24.80;55.70
11387;DHT22;5748;53.102;8.456;2023-03-23T12:13:44;25.20;59.30
11387;DHT22;5748;53.102;8.456;2023-03-23T12:16:33;25.50;54.40
11387;DHT22;5748;53.102;8.456;2023-03-23T12:19:11;25.60;51.80
11387;DHT22;5748;53.102;8.456;2023-03-23T12:21:52;25.60;55.00
11387;DHT22;5748;53.102;8.456;2023-03-23T12:24:35;25.50;53.10
11387;DHT22;5748;53.102;8.456;2023-03-23T12:27:15;25.40;52.20
11387;DHT22;5748;53.102;8.456;2023-03-23T12:30:12;25.10;53.70
11387;DHT22;5748;53.102;8.456;2023-03-23T12:32:58;24.70;52.80
11387;DHT22;5748;53.102;8.456;2023-03-23T12:35:42;24.50;53.70
11387;DHT22;5748;53.102;8.456;2023-03-23T12:38:31;24.30;53.30
11387;DHT22;5748;53.102;8.456;2023-03-23T12:41:16;24.00;50.80
11387;DHT22;5748;53.102;8.456;2023-03-23T12:43:50;23.70;51.30
11387;DHT22;5748;53.102;8.456;2023-03-23T12:46:33;23.60;53.50
11387;DHT22;5748;53.102;8.456;2023-03-23T12:49:10;23.50;53.60
11387;DHT22;5748;53.102;8.456;2023-03-23T12:51:43;23.20;51.70
11387;DHT22;5748;53.102;8.456;2023-03-23T12:54:19;23.20;53.70
11387;DHT22;5748;53.102;8.456;2023-03-23T12:56:54;23.10;53.90
11387;DHT22;5748;53.102;8.456;2023-03-23T12:59:29;22.90;53.20
11387;DHT22;5748;53.102;8.456;2023-03-23T13:02:05;22.80;52.70
11387;DHT22;5748;53.102;8.456;2023-03-23T13:04:40;22.60;52.80
11387;DHT22;5748;53.102;8.456;2023-03-23T13:07:14;22.50;52.90
11387;DHT22;5748;53.102;8.456;2023-03-23T13:09:49;22.30;52.50
11387;DHT22;5748;53.102;8.456;2023-03-23T13:12:21;22.00;52.10
11387;DHT22;5748;53.102;8.456;2023-03-23T13:14:56;21.90;53.60
11387;DHT22;5748;53.102;8.456;2023-03-23T13:17:37;21.70;53.60
11387;DHT22;5748;53.102;8.456;2023-03-23T13:20:30;21.70;52.20
11387;DHT22;5748;53.102;8.456;2023-03-23T13:23:10;21.70;50.20
11387;DHT22;5748;53.102;8.456;2023-03-23T13:25:54;21.60;52.80
11387;DHT22;5748;53.102;8.456;2023-03-23T13:31:41;21.30;51.20
11387;DHT22;5748;53.102;8.456;2023-03-23T13:34:16;21.20;52.10
11387;DHT22;5748;53.102;8.456;2023-03-23T13:36:52;21.00;52.70
11387;DHT22;5748;53.102;8.456;2023-03-23T13:39:28;20.90;51.30
11387;DHT22;5748;53.102;8.456;2023-03-23T13:42:03;20.60;52.60
11387;DHT22;5748;53.102;8.456;2023-03-23T13:51:51;19.60;48.70
11387;DHT22;5748;53.102;8.456;2023-03-23T13:54:29;19.40;50.90
11387;DHT22;5748;53.102;8.456;2023-03-23T13:56:59;19.10;51.80
11387;DHT22;5748;53.102;8.456;2023-03-23T13:59:34;18.90;51.20
11387;DHT22;5748;53.102;8.456;2023-03-23T14:02:29;18.60;52.30
11387;DHT22;5748;53.102;8.456;2023-03-23T14:05:09;18.50;51.20
11387;DHT22;5748;53.102;8.456;2023-03-23T14:07:56;18.50;53.30
11387;DHT22;5748;53.102;8.456;2023-03-23T14:10:31;18.60;54.50
11387;DHT22;5748;53.102;8.456;2023-03-23T14:13:01;18.70;55.50
11387;DHT22;5748;53.102;8.456;2023-03-23T14:15:30;19.00;56.30
11387;DHT22;5748;53.102;8.456;2023-03-23T14:18:04;19.40;55.50
11387;DHT22;5748;53.102;8.456;2023-03-23T14:20:33;19.60;56.40
11387;DHT22;5748;53.102;8.456;2023-03-23T14:23:02;19.90;55.80
11387;DHT22;5748;53.102;8.456;2023-03-23T14:25:30;20.10;55.50
11387;DHT22;5748;53.102;8.456;2023-03-23T14:27:59;20.30;55.50
11387;DHT22;5748;53.102;8.456;2023-03-23T14:30:35;20.60;55.60
11387;DHT22;5748;53.102;8.456;2023-03-23T14:33:05;20.80;55.50
11387;DHT22;5748;53.102;8.456;2023-03-23T14:35:36;20.90;55.40
11387;DHT22;5748;53.102;8.456;2023-03-23T14:38:11;21.20;55.70
11387;DHT22;5748;53.102;8.456;2023-03-23T14:40:44;21.30;55.60
11387;DHT22;5748;53.102;8.456;2023-03-23T14:43:15;21.50;55.80
11387;DHT22;5748;53.102;8.456;2023-03-23T14:45:52;21.70;55.00
11387;DHT22;5748;53.102;8.456;2023-03-23T14:48:20;21.80;55.10
11387;DHT22;5748;53.102;8.456;2023-03-23T14:50:52;22.00;55.40
11387;DHT22;5748;53.102;8.456;2023-03-23T14:53:25;22.10;54.80
11387;DHT22;5748;53.102;8.456;2023-03-23T14:55:54;22.20;53.80
11387;DHT22;5748;53.102;8.456;2023-03-23T14:58:23;22.20;53.40
11387;DHT22;5748;53.102;8.456;2023-03-23T15:00:54;22.20;51.40
11387;DHT22;5748;53.102;8.456;2023-03-23T15:03:24;22.20;51.10
11387;DHT22;5748;53.102;8.456;2023-03-23T15:05:54;22.10;51.10
11387;DHT22;5748;53.102;8.456;2023-03-23T15:08:27;22.10;51.20
11387;DHT22;5748;53.102;8.456;2023-03-23T15:11:05;22.00;51.30
11387;DHT22;5748;53.102;8.456;2023-03-23T15:13:34;22.00;50.80
11387;DHT22;5748;53.102;8.456;2023-03-23T15:16:04;21.90;51.30
11387;DHT22;5748;53.102;8.456;2023-03-23T15:18:35;21.80;51.20
11387;DHT22;5748;53.102;8.456;2023-03-23T15:21:12;22.70;51.40
11387;DHT22;5748;53.102;8.456;2023-03-23T15:23:49;21.50;50.20
11387;DHT22;5748;53.102;8.456;2023-03-23T15:26:30;22.00;51.20
11387;DHT22;5748;53.102;8.456;2023-03-23T15:29:15;21.20;50.80
11387;DHT22;5748;53.102;8.456;2023-03-23T15:31:46;21.00;51.20
11387;DHT22;5748;53.102;8.456;2023-03-23T15:34:21;20.90;52.10
11387;DHT22;5748;53.102;8.456;2023-03-23T15:36:57;20.80;52.40
11387;DHT22;5748;53.102;8.456;2023-03-23T15:39:30;20.60;52.70
11387;DHT22;5748;53.102;8.456;2023-03-23T15:41:59;20.50;52.20
11387;DHT22;5748;53.102;8.456;2023-03-23T15:44:29;20.50;52.80
11387;DHT22;5748;53.102;8.456;2023-03-23T15:47:14;20.30;52.60
11387;DHT22;5748;53.102;8.456;2023-03-23T15:49:43;20.30;51.90
11387;DHT22;5748;53.102;8.456;2023-03-23T15:52:13;20.20;52.80
11387;DHT22;5748;53.102;8.456;2023-03-23T15:54:47;20.20;52.20
11387;DHT22;5748;53.102;8.456;2023-03-23T15:57:14;20.10;52.50
11387;DHT22;5748;53.102;8.456;2023-03-23T15:59:43;19.90;52.50
11387;DHT22;5748;53.102;8.456;2023-03-23T16:02:18;19.90;52.30
11387;DHT22;5748;53.102;8.456;2023-03-23T16:04:47;19.80;52.50
11387;DHT22;5748;53.102;8.456;2023-03-23T16:07:16;19.70;52.40
11387;DHT22;5748;53.102;8.456;2023-03-23T16:09:44;19.60;52.70
11387;DHT22;5748;53.102;8.456;2023-03-23T16:12:13;19.50;52.70
11387;DHT22;5748;53.102;8.456;2023-03-23T16:14:40;19.50;52.90
11387;DHT22;5748;53.102;8.456;2023-03-23T16:17:10;19.40;52.80
11387;DHT22;5748;53.102;8.456;2023-03-23T16:19:40;19.30;52.70
11387;DHT22;5748;53.102;8.456;2023-03-23T16:22:08;19.20;52.90
11387;DHT22;5748;53.102;8.456;2023-03-23T16:24:35;19.10;53.10
11387;DHT22;5748;53.102;8.456;2023-03-23T16:27:03;19.00;53.00
11387;DHT22;5748;53.102;8.456;2023-03-23T16:29:31;18.90;53.20
11387;DHT22;5748;53.102;8.456;2023-03-23T16:32:00;18.80;53.10
11387;DHT22;5748;53.102;8.456;2023-03-23T16:34:28;18.80;53.30